sensor_id;sensor_type;location;lat;lon;timestamp;pressure;altitude;pressure_sealevel;temperature;humidity
57628;BME280;43451;49.060;10.616;2023-03-31T00:00:34;96192.97;;;5.07;100.00
57628;BME280;43451;49.060;10.616;2023-03-31T00:03:00;96188.66;;;4.99;100.00
57628;BME280;43451;49.060;10.616;2023-03-31T00:05:26;96189.47;;;5.03;100.00
57628;BME280;43451;49.060;10.616;2023-03-31T00:07:55;96186.03;;;5.06;100.00
57628;BME280;43451;49.060;10.616;2023-03-31T00:10:25;96180.50;;;5.29;100.00
57628;BME280;43451;49.060;10.616;2023-03-31T00:12:51;96178.31;;;5.42;100.00
57628;BME280;43451;49.060;10.616;2023-03-31T00:15:16;96182.97;;;5.48;100.00
57628;BME280;43451;49.060;10.616;2023-03-31T00:17:41;96179.00;;;5.35;100.00
57628;BME280;43451;49.060;10.616;2023-03-31T00:20:07;96182.13;;;5.37;100.00
57628;BME280;43451;49.060;10.616;2023-03-31T00:22:36;96175.31;;;5.50;100.00
57628;BME280;43451;49.060;10.616;2023-03-31T00:25:03;96174.72;;;5.71;100.00
57628;BME280;43451;49.060;10.616;2023-03-31T00:27:28;96170.09;;;5.68;100.00
57628;BME280;43451;49.060;10.616;2023-03-31T00:29:54;96165.19;;;5.81;100.00
57628;BME280;43451;49.060;10.616;2023-03-31T00:32:19;96153.38;;;5.96;100.00
57628;BME280;43451;49.060;10.616;2023-03-31T00:34:45;96143.66;;;5.88;100.00
57628;BME280;43451;49.060;10.616;2023-03-31T00:37:10;96151.72;;;5.81;100.00
57628;BME280;43451;49.060;10.616;2023-03-31T00:39:40;96141.25;;;5.76;100.00
57628;BME280;43451;49.060;10.616;2023-03-31T00:42:05;96134.53;;;5.96;100.00
57628;BME280;43451;49.060;10.616;2023-03-31T00:44:34;96128.47;;;6.21;100.00
57628;BME280;43451;49.060;10.616;2023-03-31T00:47:01;96121.41;;;5.98;100.00
57628;BME280;43451;49.060;10.616;2023-03-31T00:49:31;96129.31;;;5.77;100.00
57628;BME280;43451;49.060;10.616;2023-03-31T00:52:20;96109.97;;;5.61;100.00
57628;BME280;43451;49.060;10.616;2023-03-31T00:54:46;96108.31;;;5.45;100.00
57628;BME280;43451;49.060;10.616;2023-03-31T00:57:13;96101.72;;;5.39;100.00
57628;BME280;43451;49.060;10.616;2023-03-31T00:59:41;96096.41;;;5.46;100.00
57628;BME280;43451;49.060;10.616;2023-03-31T01:02:08;96100.91;;;5.35;100.00
57628;BME280;43451;49.060;10.616;2023-03-31T01:04:36;96097.09;;;5.36;100.00
57628;BME280;43451;49.060;10.616;2023-03-31T01:09:41;96084.38;;;5.33;100.00
57628;BME280;43451;49.060;10.616;2023-03-31T01:12:11;96078.97;;;5.33;100.00
57628;BME280;43451;49.060;10.616;2023-03-31T01:14:37;96073.25;;;5.42;100.00
57628;BME280;43451;49.060;10.616;2023-03-31T01:17:03;96074.81;;;5.43;100.00
57628;BME280;43451;49.060;10.616;2023-03-31T01:47:39;96054.66;;;6.72;100.00
57628;BME280;43451;49.060;10.616;2023-03-31T01:50:21;96048.09;;;6.66;100.00
57628;BME280;43451;49.060;10.616;2023-03-31T01:52:57;96050.44;;;6.67;100.00
57628;BME280;43451;49.060;10.616;2023-03-31T01:55:28;96057.75;;;6.60;100.00
57628;BME280;43451;49.060;10.616;2023-03-31T01:58:04;96047.69;;;6.53;100.00
57628;BME280;43451;49.060;10.616;2023-03-31T02:00:32;96048.50;;;6.68;100.00
57628;BME280;43451;49.060;10.616;2023-03-31T02:03:16;96053.50;;;6.66;100.00
57628;BME280;43451;49.060;10.616;2023-03-31T02:05:56;96053.88;;;6.64;100.00
57628;BME280;43451;49.060;10.616;2023-03-31T02:08:24;96053.53;;;6.73;100.00
57628;BME280;43451;49.060;10.616;2023-03-31T02:10:52;96044.28;;;6.74;100.00
57628;BME280;43451;49.060;10.616;2023-03-31T02:13:18;96035.00;;;6.64;100.00
57628;BME280;43451;49.060;10.616;2023-03-31T02:15:45;96038.06;;;6.63;100.00
57628;BME280;43451;49.060;10.616;2023-03-31T02:18:12;96037.31;;;6.66;100.00
57628;BME280;43451;49.060;10.616;2023-03-31T02:20:41;96032.69;;;6.70;100.00
57628;BME280;43451;49.060;10.616;2023-03-31T02:23:07;96023.44;;;6.74;100.00
57628;BME280;43451;49.060;10.616;2023-03-31T02:25:35;96017.28;;;6.67;100.00
57628;BME280;43451;49.060;10.616;2023-03-31T02:28:07;96009.19;;;6.74;100.00
57628;BME280;43451;49.060;10.616;2023-03-31T02:30:42;96019.25;;;6.91;100.00
57628;BME280;43451;49.060;10.616;2023-03-31T02:33:09;96006.50;;;6.92;100.00
57628;BME280;43451;49.060;10.616;2023-03-31T02:35:35;96002.66;;;6.96;100.00
57628;BME280;43451;49.060;10.616;2023-03-31T02:38:00;96002.66;;;7.11;100.00
57628;BME280;43451;49.060;10.616;2023-03-31T02:40:26;95994.16;;;7.27;100.00
57628;BME280;43451;49.060;10.616;2023-03-31T02:42:52;95985.25;;;7.26;100.00
57628;BME280;43451;49.060;10.616;2023-03-31T02:45:37;95984.13;;;7.20;100.00
57628;BME280;43451;49.060;10.616;2023-03-31T02:48:08;95981.44;;;7.27;100.00
57628;BME280;43451;49.060;10.616;2023-03-31T02:50:39;95969.44;;;7.35;100.00
57628;BME280;43451;49.060;10.616;2023-03-31T02:53:11;95980.25;;;7.28;100.00
57628;BME280;43451;49.060;10.616;2023-03-31T03:13:51;95959.06;;;6.73;100.00
57628;BME280;43451;49.060;10.616;2023-03-31T03:19:04;95954.06;;;6.89;100.00
57628;BME280;43451;49.060;10.616;2023-03-31T03:21:30;95948.63;;;7.00;100.00
57628;BME280;43451;49.060;10.616;2023-03-31T03:23:56;95944.78;;;6.97;100.00
57628;BME280;43451;49.060;10.616;2023-03-31T03:26:21;95937.03;;;7.10;100.00
57628;BME280;43451;49.060;10.616;2023-03-31T03:28:51;95930.84;;;7.28;100.00
57628;BME280;43451;49.060;10.616;2023-03-31T03:31:16;95935.47;;;7.34;100.00
57628;BME280;43451;49.060;10.616;2023-03-31T03:33:42;95931.59;;;7.42;100.00
57628;BME280;43451;49.060;10.616;2023-03-31T03:36:07;95923.50;;;7.35;100.00
57628;BME280;43451;49.060;10.616;2023-03-31T03:38:33;95916.56;;;7.38;100.00
57628;BME280;43451;49.060;10.616;2023-03-31T03:40:58;95910.00;;;7.42;100.00
57628;BME280;43451;49.060;10.616;2023-03-31T03:43:24;95913.13;;;7.27;100.00
57628;BME280;43451;49.060;10.616;2023-03-31T03:45:50;95907.31;;;7.28;100.00
57628;BME280;43451;49.060;10.616;2023-03-31T03:48:16;95897.69;;;7.24;100.00
57628;BME280;43451;49.060;10.616;2023-03-31T03:50:41;95896.13;;;7.19;100.00
57628;BME280;43451;49.060;10.616;2023-03-31T03:53:06;95894.59;;;7.18;100.00
57628;BME280;43451;49.060;10.616;2023-03-31T03:55:32;95885.31;;;7.33;100.00
57628;BME280;43451;49.060;10.616;2023-03-31T03:57:58;95883.75;;;7.36;100.00
57628;BME280;43451;49.060;10.616;2023-03-31T04:00:23;95867.13;;;7.41;100.00
57628;BME280;43451;49.060;10.616;2023-03-31T04:02:48;95858.66;;;7.42;100.00
57628;BME280;43451;49.060;10.616;2023-03-31T04:05:14;95850.50;;;7.50;100.00
57628;BME280;43451;49.060;10.616;2023-03-31T04:07:39;95827.72;;;7.51;100.00
57628;BME280;43451;49.060;10.616;2023-03-31T04:10:05;95805.81;;;7.27;100.00
57628;BME280;43451;49.060;10.616;2023-03-31T04:12:32;95803.50;;;7.26;100.00
57628;BME280;43451;49.060;10.616;2023-03-31T04:14:58;95785.78;;;7.17;100.00
57628;BME280;43451;49.060;10.616;2023-03-31T04:17:23;95773.75;;;7.29;100.00
57628;BME280;43451;49.060;10.616;2023-03-31T04:19:56;95762.97;;;7.29;100.00
57628;BME280;43451;49.060;10.616;2023-03-31T04:22:28;95758.72;;;7.28;100.00
57628;BME280;43451;49.060;10.616;2023-03-31T04:25:06;95762.59;;;7.27;100.00
57628;BME280;43451;49.060;10.616;2023-03-31T04:27:44;95745.66;;;7.23;100.00
57628;BME280;43451;49.060;10.616;2023-03-31T04:30:25;95737.91;;;7.21;100.00
57628;BME280;43451;49.060;10.616;2023-03-31T04:32:57;95738.59;;;7.40;100.00
57628;BME280;43451;49.060;10.616;2023-03-31T04:35:24;95743.25;;;7.39;100.00
57628;BME280;43451;49.060;10.616;2023-03-31T04:37:50;95742.06;;;7.40;100.00
57628;BME280;43451;49.060;10.616;2023-03-31T04:40:16;95730.75;;;7.60;100.00
57628;BME280;43451;49.060;10.616;2023-03-31T04:42:42;95725.78;;;7.51;100.00
57628;BME280;43451;49.060;10.616;2023-03-31T04:45:11;95728.94;;;7.42;100.00
57628;BME280;43451;49.060;10.616;2023-03-31T04:47:36;95736.66;;;7.40;100.00
57628;BME280;43451;49.060;10.616;2023-03-31T04:50:02;95733.97;;;7.40;100.00
57628;BME280;43451;49.060;10.616;2023-03-31T04:52:27;95729.31;;;7.41;100.00
57628;BME280;43451;49.060;10.616;2023-03-31T04:54:53;95730.19;;;7.27;100.00
57628;BME280;43451;49.060;10.616;2023-03-31T04:57:18;95721.69;;;7.25;100.00
57628;BME280;43451;49.060;10.616;2023-03-31T04:59:43;95720.78;;;7.50;100.00
57628;BME280;43451;49.060;10.616;2023-03-31T05:02:10;95708.47;;;7.41;100.00
57628;BME280;43451;49.060;10.616;2023-03-31T05:04:38;95710.34;;;7.55;100.00
57628;BME280;43451;49.060;10.616;2023-03-31T05:07:03;95705.38;;;7.47;100.00
57628;BME280;43451;49.060;10.616;2023-03-31T05:09:29;95703.84;;;7.46;100.00
57628;BME280;43451;49.060;10.616;2023-03-31T05:11:55;95698.81;;;7.44;100.00
57628;BME280;43451;49.060;10.616;2023-03-31T05:14:20;95686.00;;;7.59;100.00
57628;BME280;43451;49.060;10.616;2023-03-31T05:16:46;95675.88;;;7.66;100.00
57628;BME280;43451;49.060;10.616;2023-03-31T05:19:11;95671.94;;;7.78;100.00
57628;BME280;43451;49.060;10.616;2023-03-31T05:21:36;95661.91;;;7.75;100.00
57628;BME280;43451;49.060;10.616;2023-03-31T05:24:02;95656.47;;;7.79;100.00
57628;BME280;43451;49.060;10.616;2023-03-31T05:26:28;95647.19;;;7.83;100.00
57628;BME280;43451;49.060;10.616;2023-03-31T05:28:54;95654.16;;;7.81;100.00
57628;BME280;43451;49.060;10.616;2023-03-31T05:31:19;95651.53;;;7.70;100.00
57628;BME280;43451;49.060;10.616;2023-03-31T05:33:45;95648.75;;;7.81;100.00
57628;BME280;43451;49.060;10.616;2023-03-31T05:36:11;95637.91;;;7.84;100.00
57628;BME280;43451;49.060;10.616;2023-03-31T05:38:37;95640.94;;;7.86;100.00
57628;BME280;43451;49.060;10.616;2023-03-31T05:41:02;95631.66;;;7.91;100.00
57628;BME280;43451;49.060;10.616;2023-03-31T05:43:28;95632.50;;;7.84;100.00
57628;BME280;43451;49.060;10.616;2023-03-31T05:45:54;95640.63;;;7.81;100.00
57628;BME280;43451;49.060;10.616;2023-03-31T05:48:19;95636.72;;;7.85;100.00
57628;BME280;43451;49.060;10.616;2023-03-31T05:50:45;95620.53;;;7.82;100.00
57628;BME280;43451;49.060;10.616;2023-03-31T05:53:11;95626.25;;;7.91;100.00
57628;BME280;43451;49.060;10.616;2023-03-31T05:55:37;95627.38;;;7.94;100.00
57628;BME280;43451;49.060;10.616;2023-03-31T05:58:02;95624.69;;;7.94;100.00
57628;BME280;43451;49.060;10.616;2023-03-31T06:00:27;95624.19;;;8.02;100.00
57628;BME280;43451;49.060;10.616;2023-03-31T06:02:53;95613.09;;;7.89;100.00
57628;BME280;43451;49.060;10.616;2023-03-31T06:05:18;95615.34;;;7.98;100.00
57628;BME280;43451;49.060;10.616;2023-03-31T06:07:43;95623.91;;;7.93;100.00
57628;BME280;43451;49.060;10.616;2023-03-31T06:10:09;95621.97;;;7.94;100.00
57628;BME280;43451;49.060;10.616;2023-03-31T06:12:34;95625.47;;;7.90;100.00
57628;BME280;43451;49.060;10.616;2023-03-31T06:15:00;95640.16;;;7.89;100.00
57628;BME280;43451;49.060;10.616;2023-03-31T06:17:26;95636.28;;;7.90;100.00
57628;BME280;43451;49.060;10.616;2023-03-31T06:19:51;95640.03;;;8.04;100.00
57628;BME280;43451;49.060;10.616;2023-03-31T06:22:17;95645.44;;;8.04;100.00
57628;BME280;43451;49.060;10.616;2023-03-31T06:24:42;95648.56;;;7.99;100.00
57628;BME280;43451;49.060;10.616;2023-03-31T06:27:07;95650.00;;;8.10;100.00
57628;BME280;43451;49.060;10.616;2023-03-31T06:29:33;95655.00;;;8.16;100.00
57628;BME280;43451;49.060;10.616;2023-03-31T06:31:58;95643.06;;;8.09;100.00
57628;BME280;43451;49.060;10.616;2023-03-31T06:34:25;95644.94;;;8.16;100.00
57628;BME280;43451;49.060;10.616;2023-03-31T06:36:50;95642.66;;;8.11;100.00
57628;BME280;43451;49.060;10.616;2023-03-31T06:39:15;95640.63;;;8.22;100.00
57628;BME280;43451;49.060;10.616;2023-03-31T06:41:41;95637.16;;;8.18;100.00
57628;BME280;43451;49.060;10.616;2023-03-31T06:44:06;95627.94;;;8.16;100.00
57628;BME280;43451;49.060;10.616;2023-03-31T06:46:31;95621.53;;;7.99;100.00
57628;BME280;43451;49.060;10.616;2023-03-31T06:48:57;95627.78;;;7.92;100.00
57628;BME280;43451;49.060;10.616;2023-03-31T06:51:22;95631.63;;;7.95;100.00
57628;BME280;43451;49.060;10.616;2023-03-31T06:53:47;95623.84;;;8.00;100.00
57628;BME280;43451;49.060;10.616;2023-03-31T06:56:13;95626.91;;;8.02;100.00
57628;BME280;43451;49.060;10.616;2023-03-31T06:58:38;95623.00;;;8.07;100.00
57628;BME280;43451;49.060;10.616;2023-03-31T07:01:04;95615.25;;;8.09;100.00
57628;BME280;43451;49.060;10.616;2023-03-31T07:03:30;95612.91;;;8.11;100.00
57628;BME280;43451;49.060;10.616;2023-03-31T07:05:55;95597.53;;;8.04;100.00
57628;BME280;43451;49.060;10.616;2023-03-31T07:08:21;95592.81;;;8.12;100.00
57628;BME280;43451;49.060;10.616;2023-03-31T07:10:47;95584.44;;;7.99;100.00
57628;BME280;43451;49.060;10.616;2023-03-31T07:13:16;95582.91;;;7.98;100.00
57628;BME280;43451;49.060;10.616;2023-03-31T07:15:42;95573.31;;;7.94;100.00
57628;BME280;43451;49.060;10.616;2023-03-31T07:18:07;95565.19;;;7.94;100.00
57628;BME280;43451;49.060;10.616;2023-03-31T07:20:33;95553.16;;;7.98;100.00
57628;BME280;43451;49.060;10.616;2023-03-31T07:22:59;95550.56;;;7.87;100.00
57628;BME280;43451;49.060;10.616;2023-03-31T07:25:27;95547.81;;;7.91;100.00
57628;BME280;43451;49.060;10.616;2023-03-31T07:27:52;95540.13;;;7.86;100.00
57628;BME280;43451;49.060;10.616;2023-03-31T07:30:18;95539.66;;;7.95;100.00
57628;BME280;43451;49.060;10.616;2023-03-31T07:32:47;95527.72;;;7.92;100.00
57628;BME280;43451;49.060;10.616;2023-03-31T07:35:13;95513.88;;;7.86;100.00
57628;BME280;43451;49.060;10.616;2023-03-31T07:37:39;95514.25;;;7.88;100.00
57628;BME280;43451;49.060;10.616;2023-03-31T07:40:05;95515.38;;;7.91;100.00
57628;BME280;43451;49.060;10.616;2023-03-31T07:42:31;95514.16;;;7.96;100.00
57628;BME280;43451;49.060;10.616;2023-03-31T07:44:57;95535.31;;;8.04;100.00
57628;BME280;43451;49.060;10.616;2023-03-31T07:47:22;95534.22;;;7.98;100.00
57628;BME280;43451;49.060;10.616;2023-03-31T07:49:49;95540.00;;;8.00;100.00
57628;BME280;43451;49.060;10.616;2023-03-31T07:52:15;95547.66;;;8.09;100.00
57628;BME280;43451;49.060;10.616;2023-03-31T07:54:41;95560.34;;;8.12;100.00
57628;BME280;43451;49.060;10.616;2023-03-31T07:57:06;95556.84;;;8.15;100.00
57628;BME280;43451;49.060;10.616;2023-03-31T07:59:33;95560.28;;;8.19;100.00
57628;BME280;43451;49.060;10.616;2023-03-31T08:01:58;95564.97;;;8.15;100.00
57628;BME280;43451;49.060;10.616;2023-03-31T08:04:23;95584.16;;;8.24;100.00
57628;BME280;43451;49.060;10.616;2023-03-31T08:06:49;95587.66;;;8.25;100.00
57628;BME280;43451;49.060;10.616;2023-03-31T08:09:15;95602.66;;;8.29;100.00
57628;BME280;43451;49.060;10.616;2023-03-31T08:11:41;95607.66;;;8.34;100.00
57628;BME280;43451;49.060;10.616;2023-03-31T08:14:07;95629.78;;;8.26;100.00
57628;BME280;43451;49.060;10.616;2023-03-31T08:16:32;95601.94;;;8.25;100.00
57628;BME280;43451;49.060;10.616;2023-03-31T08:18:57;95584.53;;;8.26;100.00
57628;BME280;43451;49.060;10.616;2023-03-31T08:21:23;95551.63;;;8.31;100.00
57628;BME280;43451;49.060;10.616;2023-03-31T08:23:48;95469.97;;;8.36;100.00
57628;BME280;43451;49.060;10.616;2023-03-31T08:26:14;95434.41;;;8.65;100.00
57628;BME280;43451;49.060;10.616;2023-03-31T08:28:42;95421.00;;;8.81;100.00
57628;BME280;43451;49.060;10.616;2023-03-31T08:31:08;95446.34;;;8.95;100.00
57628;BME280;43451;49.060;10.616;2023-03-31T08:33:34;95445.28;;;9.12;100.00
57628;BME280;43451;49.060;10.616;2023-03-31T08:36:01;95437.75;;;9.23;100.00
57628;BME280;43451;49.060;10.616;2023-03-31T08:38:26;95451.69;;;9.22;100.00
57628;BME280;43451;49.060;10.616;2023-03-31T08:40:57;95458.81;;;9.36;100.00
57628;BME280;43451;49.060;10.616;2023-03-31T08:43:25;95455.97;;;9.43;100.00
57628;BME280;43451;49.060;10.616;2023-03-31T08:45:51;95463.00;;;9.60;100.00
57628;BME280;43451;49.060;10.616;2023-03-31T08:48:28;95470.09;;;9.54;100.00
57628;BME280;43451;49.060;10.616;2023-03-31T08:50:57;95459.81;;;9.65;100.00
57628;BME280;43451;49.060;10.616;2023-03-31T08:55:53;95452.81;;;9.68;100.00
57628;BME280;43451;49.060;10.616;2023-03-31T09:00:45;95436.75;;;9.77;100.00
57628;BME280;43451;49.060;10.616;2023-03-31T09:03:29;95434.84;;;9.94;100.00
57628;BME280;43451;49.060;10.616;2023-03-31T09:06:00;95445.84;;;10.07;100.00
57628;BME280;43451;49.060;10.616;2023-03-31T09:11:03;95440.81;;;10.25;100.00
57628;BME280;43451;49.060;10.616;2023-03-31T09:18:37;95435.34;;;10.29;100.00
57628;BME280;43451;49.060;10.616;2023-03-31T09:23:43;95426.81;;;10.63;100.00
57628;BME280;43451;49.060;10.616;2023-03-31T09:26:12;95431.72;;;10.84;100.00
57628;BME280;43451;49.060;10.616;2023-03-31T09:28:42;95429.63;;;10.76;100.00
57628;BME280;43451;49.060;10.616;2023-03-31T09:31:13;95418.91;;;10.68;100.00
57628;BME280;43451;49.060;10.616;2023-03-31T09:33:41;95425.03;;;10.73;100.00
57628;BME280;43451;49.060;10.616;2023-03-31T09:36:12;95425.13;;;10.69;100.00
57628;BME280;43451;49.060;10.616;2023-03-31T09:38:39;95424.22;;;10.39;100.00
57628;BME280;43451;49.060;10.616;2023-03-31T09:41:05;95424.69;;;10.71;100.00
57628;BME280;43451;49.060;10.616;2023-03-31T09:43:31;95414.50;;;10.75;100.00
57628;BME280;43451;49.060;10.616;2023-03-31T09:45:59;95413.06;;;10.86;100.00
57628;BME280;43451;49.060;10.616;2023-03-31T09:48:26;95399.97;;;11.14;100.00
57628;BME280;43451;49.060;10.616;2023-03-31T09:51:13;95396.94;;;10.79;100.00
57628;BME280;43451;49.060;10.616;2023-03-31T09:56:06;95393.78;;;10.81;100.00
57628;BME280;43451;49.060;10.616;2023-03-31T09:58:42;95389.00;;;11.18;100.00
57628;BME280;43451;49.060;10.616;2023-03-31T10:01:09;95384.31;;;11.18;100.00
57628;BME280;43451;49.060;10.616;2023-03-31T10:03:46;95390.31;;;11.42;100.00
57628;BME280;43451;49.060;10.616;2023-03-31T10:06:13;95380.84;;;11.47;100.00
57628;BME280;43451;49.060;10.616;2023-03-31T10:08:59;95381.34;;;11.12;100.00
57628;BME280;43451;49.060;10.616;2023-03-31T10:11:25;95388.09;;;10.91;100.00
57628;BME280;43451;49.060;10.616;2023-03-31T10:16:32;95379.69;;;11.02;100.00
57628;BME280;43451;49.060;10.616;2023-03-31T10:19:11;95366.41;;;11.21;100.00
57628;BME280;43451;49.060;10.616;2023-03-31T10:21:37;95369.38;;;11.26;100.00
57628;BME280;43451;49.060;10.616;2023-03-31T10:24:07;95365.56;;;11.07;100.00
57628;BME280;43451;49.060;10.616;2023-03-31T10:26:33;95378.31;;;11.10;100.00
57628;BME280;43451;49.060;10.616;2023-03-31T10:28:58;95366.09;;;11.60;100.00
57628;BME280;43451;49.060;10.616;2023-03-31T10:31:33;95373.22;;;11.83;100.00
57628;BME280;43451;49.060;10.616;2023-03-31T10:34:03;95336.81;;;12.06;100.00
57628;BME280;43451;49.060;10.616;2023-03-31T10:36:29;95341.16;;;12.04;100.00
57628;BME280;43451;49.060;10.616;2023-03-31T10:38:55;95346.19;;;12.05;100.00
57628;BME280;43451;49.060;10.616;2023-03-31T10:41:22;95332.13;;;11.52;100.00
57628;BME280;43451;49.060;10.616;2023-03-31T10:43:49;95332.59;;;11.76;100.00
57628;BME280;43451;49.060;10.616;2023-03-31T10:46:15;95295.88;;;11.97;100.00
57628;BME280;43451;49.060;10.616;2023-03-31T10:48:41;95325.69;;;11.88;100.00
57628;BME280;43451;49.060;10.616;2023-03-31T10:51:14;95322.66;;;12.12;100.00
57628;BME280;43451;49.060;10.616;2023-03-31T10:53:41;95336.47;;;12.04;100.00
57628;BME280;43451;49.060;10.616;2023-03-31T11:04:03;95340.53;;;11.29;100.00
57628;BME280;43451;49.060;10.616;2023-03-31T11:09:27;95314.34;;;10.60;100.00
57628;BME280;43451;49.060;10.616;2023-03-31T11:12:17;95307.25;;;10.96;100.00
57628;BME280;43451;49.060;10.616;2023-03-31T11:25:15;95281.91;;;12.21;100.00
57628;BME280;43451;49.060;10.616;2023-03-31T11:30:23;95261.56;;;12.73;99.88
57628;BME280;43451;49.060;10.616;2023-03-31T11:32:57;95243.03;;;12.68;100.00
57628;BME280;43451;49.060;10.616;2023-03-31T11:35:44;95264.50;;;13.00;97.79
57628;BME280;43451;49.060;10.616;2023-03-31T11:46:10;95242.06;;;13.40;94.53
57628;BME280;43451;49.060;10.616;2023-03-31T11:48:45;95262.53;;;13.67;89.59
57628;BME280;43451;49.060;10.616;2023-03-31T11:51:16;95266.19;;;13.42;88.19
57628;BME280;43451;49.060;10.616;2023-03-31T11:53:45;95252.00;;;13.56;94.05
57628;BME280;43451;49.060;10.616;2023-03-31T11:56:11;95239.38;;;13.50;87.01
57628;BME280;43451;49.060;10.616;2023-03-31T11:58:38;95239.53;;;13.77;85.55
57628;BME280;43451;49.060;10.616;2023-03-31T12:06:12;95227.94;;;13.64;90.80
57628;BME280;43451;49.060;10.616;2023-03-31T12:11:16;95196.66;;;13.56;83.77
57628;BME280;43451;49.060;10.616;2023-03-31T12:16:36;95214.97;;;13.46;81.57
57628;BME280;43451;49.060;10.616;2023-03-31T12:21:28;95214.72;;;12.87;88.31
57628;BME280;43451;49.060;10.616;2023-03-31T12:23:54;95228.66;;;12.89;87.97
57628;BME280;43451;49.060;10.616;2023-03-31T12:28:57;95238.13;;;12.97;82.62
57628;BME280;43451;49.060;10.616;2023-03-31T12:31:24;95250.06;;;12.78;87.22
57628;BME280;43451;49.060;10.616;2023-03-31T12:33:57;95248.91;;;12.31;88.89
57628;BME280;43451;49.060;10.616;2023-03-31T12:36:41;95343.69;;;10.98;100.00
57628;BME280;43451;49.060;10.616;2023-03-31T12:39:22;95474.56;;;8.12;100.00
57628;BME280;43451;49.060;10.616;2023-03-31T12:49:31;95374.81;;;6.81;100.00
57628;BME280;43451;49.060;10.616;2023-03-31T12:52:03;95395.69;;;6.77;100.00
57628;BME280;43451;49.060;10.616;2023-03-31T12:54:33;95391.78;;;6.85;100.00
57628;BME280;43451;49.060;10.616;2023-03-31T13:02:30;95356.81;;;7.09;100.00
57628;BME280;43451;49.060;10.616;2023-03-31T13:04:48;95343.56;;;7.21;100.00
57628;BME280;43451;49.060;10.616;2023-03-31T13:09:50;95337.94;;;7.43;100.00
57628;BME280;43451;49.060;10.616;2023-03-31T13:12:24;95322.38;;;7.51;100.00
57628;BME280;43451;49.060;10.616;2023-03-31T13:14:52;95327.63;;;7.65;100.00
57628;BME280;43451;49.060;10.616;2023-03-31T13:17:22;95321.91;;;7.86;100.00
57628;BME280;43451;49.060;10.616;2023-03-31T13:19:48;95312.88;;;7.97;100.00
57628;BME280;43451;49.060;10.616;2023-03-31T13:22:28;95320.44;;;8.32;100.00
57628;BME280;43451;49.060;10.616;2023-03-31T13:25:24;95323.44;;;8.42;100.00
57628;BME280;43451;49.060;10.616;2023-03-31T13:27:47;95325.31;;;8.45;100.00
57628;BME280;43451;49.060;10.616;2023-03-31T13:35:43;95298.56;;;9.34;100.00
57628;BME280;43451;49.060;10.616;2023-03-31T13:41:00;95298.34;;;9.44;100.00
57628;BME280;43451;49.060;10.616;2023-03-31T13:46:13;95300.41;;;9.93;100.00
57628;BME280;43451;49.060;10.616;2023-03-31T13:51:17;95301.38;;;10.19;100.00
57628;BME280;43451;49.060;10.616;2023-03-31T13:56:25;95279.00;;;9.79;100.00
57628;BME280;43451;49.060;10.616;2023-03-31T14:01:58;95272.84;;;10.11;100.00
57628;BME280;43451;49.060;10.616;2023-03-31T14:09:30;95263.47;;;10.48;100.00
57628;BME280;43451;49.060;10.616;2023-03-31T14:11:57;95261.41;;;10.52;100.00
57628;BME280;43451;49.060;10.616;2023-03-31T14:14:23;95256.31;;;10.05;100.00
57628;BME280;43451;49.060;10.616;2023-03-31T14:16:52;95249.53;;;10.13;100.00
57628;BME280;43451;49.060;10.616;2023-03-31T14:22:15;95235.03;;;10.04;100.00
57628;BME280;43451;49.060;10.616;2023-03-31T14:34:56;95258.91;;;9.76;100.00
57628;BME280;43451;49.060;10.616;2023-03-31T14:37:27;95260.59;;;9.70;100.00
57628;BME280;43451;49.060;10.616;2023-03-31T14:39:53;95253.00;;;9.81;100.00
57628;BME280;43451;49.060;10.616;2023-03-31T14:42:31;95239.03;;;10.15;100.00
57628;BME280;43451;49.060;10.616;2023-03-31T14:45:02;95240.56;;;10.33;100.00
57628;BME280;43451;49.060;10.616;2023-03-31T14:47:28;95242.06;;;10.17;100.00
57628;BME280;43451;49.060;10.616;2023-03-31T14:50:01;95227.56;;;10.24;100.00
57628;BME280;43451;49.060;10.616;2023-03-31T14:52:28;95221.91;;;10.18;100.00
57628;BME280;43451;49.060;10.616;2023-03-31T14:54:54;95230.91;;;10.32;100.00
57628;BME280;43451;49.060;10.616;2023-03-31T14:57:21;95235.28;;;10.42;100.00
57628;BME280;43451;49.060;10.616;2023-03-31T14:59:49;95231.38;;;10.43;100.00
57628;BME280;43451;49.060;10.616;2023-03-31T15:02:16;95235.53;;;10.48;100.00
57628;BME280;43451;49.060;10.616;2023-03-31T15:04:43;95224.94;;;10.37;100.00
57628;BME280;43451;49.060;10.616;2023-03-31T15:07:12;95236.66;;;10.50;100.00
57628;BME280;43451;49.060;10.616;2023-03-31T15:09:38;95238.88;;;10.39;100.00
57628;BME280;43451;49.060;10.616;2023-03-31T15:12:09;95241.66;;;10.19;100.00
57628;BME280;43451;49.060;10.616;2023-03-31T15:14:58;95251.06;;;10.14;100.00
57628;BME280;43451;49.060;10.616;2023-03-31T15:17:23;95250.44;;;10.56;100.00
57628;BME280;43451;49.060;10.616;2023-03-31T15:19:51;95253.56;;;10.71;100.00
57628;BME280;43451;49.060;10.616;2023-03-31T15:22:17;95226.44;;;10.83;100.00
57628;BME280;43451;49.060;10.616;2023-03-31T15:24:43;95223.28;;;10.72;100.00
57628;BME280;43451;49.060;10.616;2023-03-31T15:27:12;95239.28;;;10.83;100.00
57628;BME280;43451;49.060;10.616;2023-03-31T15:29:48;95244.19;;;10.42;100.00
57628;BME280;43451;49.060;10.616;2023-03-31T15:32:16;95246.66;;;10.20;100.00
57628;BME280;43451;49.060;10.616;2023-03-31T15:34:45;95242.75;;;10.05;100.00
57628;BME280;43451;49.060;10.616;2023-03-31T15:37:11;95244.69;;;10.05;100.00
57628;BME280;43451;49.060;10.616;2023-03-31T15:39:37;95250.28;;;10.14;100.00
57628;BME280;43451;49.060;10.616;2023-03-31T15:42:04;95239.72;;;10.36;100.00
57628;BME280;43451;49.060;10.616;2023-03-31T15:46:59;95239.53;;;10.27;100.00